Fort Greely, AK

11:12 AM AKST on December 07, 2016 (GMT -0900)
Allen Army Air Field | | Change Station

Elev 1306 ft 63.99 °N, 145.72 °W | Updated 19 minutes ago

Partly Cloudy
Partly Cloudy
-16 °F
Feels Like -32 °F
N
7
Wind Variable Wind from East

Today
High -- | Low -- °F
--% Chance of Precip.
Yesterday
High -- | Low -- °F
Precip. -- in
Pressure 30.76 in
Visibility 10.0 miles
Clouds Few 5500 ft
Few 10000 ft
Windchill -32 °F
Dew Point -21 °F
Humidity 79%
Rainfall 0.00 in
Snow Depth Not available.
10:15 AM 2:53 PM
First Quarter, 55% visible
METAR PABI 071953Z 10006KT 10SM FEW055 FEW100 M27/M29 A3053 RMK AO2 SLP416 T12671294
Pressure 30.76 in
Visibility 10.0 miles
Clouds Few 5500 ft
Few 10000 ft
Windchill -32 °F
Dew Point -21 °F
Humidity 79%
Rainfall 0.00 in
Snow Depth Not available.
10:15 AM 2:53 PM
First Quarter, 55% visible
METAR PABI 071953Z 10006KT 10SM FEW055 FEW100 M27/M29 A3053 RMK AO2 SLP416 T12671294

10-Day Weather Forecast

Almanac

Astronomy

Dec. 07, 2016 Rise Set
Actual Time
Civil Twilight
Nautical Twilight
Astronomical Twilight
Moon
Length of Visible Light
Length of Day
Tomorrow will be .
, % of the Moon is Illuminated

Today's Extremes

State Highs State Lows

Community

WunderPhotos

Upload Photos

1,956,169 photos uploaded!

WunderBlog® & News

Nearby

Air Quality

  Air Quality AQ Index Pollutant
Not available.

Snow Depth

Station Depth Elevation

Earthquake Activity

City Distance Mag. Time & Date
Minimum magnitude displayed is 2.5.

Coastal Water Temperatures

Place Temperature

Stations

Nearby Weather Stations

Station Location Temp. Windchill Dew Point Humidity Wind Precip. Elev Updated Type
                   

Watches & Warnings

There are currently no watches in effect.